sensor_id;sensor_type;location;lat;lon;timestamp;temperature;humidity
5130;DHT22;2583;50.946;6.954;2023-02-08T00:00:05;2.20;20.10
5130;DHT22;2583;50.946;6.954;2023-02-08T00:02:32;2.20;20.00
5130;DHT22;2583;50.946;6.954;2023-02-08T00:04:59;2.20;20.20
5130;DHT22;2583;50.946;6.954;2023-02-08T00:07:25;2.10;20.30
5130;DHT22;2583;50.946;6.954;2023-02-08T00:09:52;2.10;20.60
5130;DHT22;2583;50.946;6.954;2023-02-08T00:12:19;2.10;20.60
5130;DHT22;2583;50.946;6.954;2023-02-08T00:14:46;2.10;20.70
5130;DHT22;2583;50.946;6.954;2023-02-08T00:17:12;2.00;20.70
5130;DHT22;2583;50.946;6.954;2023-02-08T00:19:39;2.00;21.00
5130;DHT22;2583;50.946;6.954;2023-02-08T00:22:06;2.00;21.10
5130;DHT22;2583;50.946;6.954;2023-02-08T00:24:33;2.00;21.20
5130;DHT22;2583;50.946;6.954;2023-02-08T00:26:59;2.00;21.30
5130;DHT22;2583;50.946;6.954;2023-02-08T00:29:26;2.00;21.40
5130;DHT22;2583;50.946;6.954;2023-02-08T00:31:53;2.00;21.60
5130;DHT22;2583;50.946;6.954;2023-02-08T00:34:20;2.00;21.60
5130;DHT22;2583;50.946;6.954;2023-02-08T00:36:46;2.00;21.80
5130;DHT22;2583;50.946;6.954;2023-02-08T00:39:13;2.00;21.80
5130;DHT22;2583;50.946;6.954;2023-02-08T00:41:40;2.00;21.70
5130;DHT22;2583;50.946;6.954;2023-02-08T00:44:07;2.00;22.00
5130;DHT22;2583;50.946;6.954;2023-02-08T00:46:34;1.90;22.00
5130;DHT22;2583;50.946;6.954;2023-02-08T00:49:01;1.90;22.20
5130;DHT22;2583;50.946;6.954;2023-02-08T00:51:27;1.90;22.50
5130;DHT22;2583;50.946;6.954;2023-02-08T00:53:54;1.80;22.60
5130;DHT22;2583;50.946;6.954;2023-02-08T00:56:21;1.80;22.50
5130;DHT22;2583;50.946;6.954;2023-02-08T00:58:48;1.90;22.70
5130;DHT22;2583;50.946;6.954;2023-02-08T01:01:15;1.80;22.70
5130;DHT22;2583;50.946;6.954;2023-02-08T01:03:42;1.80;23.00
5130;DHT22;2583;50.946;6.954;2023-02-08T01:06:14;1.70;23.10
5130;DHT22;2583;50.946;6.954;2023-02-08T01:08:41;1.70;23.40
5130;DHT22;2583;50.946;6.954;2023-02-08T01:11:13;1.70;23.70
5130;DHT22;2583;50.946;6.954;2023-02-08T01:13:41;1.70;23.70
5130;DHT22;2583;50.946;6.954;2023-02-08T01:16:16;1.70;23.80
5130;DHT22;2583;50.946;6.954;2023-02-08T01:18:44;1.60;24.00
5130;DHT22;2583;50.946;6.954;2023-02-08T01:21:17;1.60;24.20
5130;DHT22;2583;50.946;6.954;2023-02-08T01:23:45;1.70;24.20
5130;DHT22;2583;50.946;6.954;2023-02-08T01:26:13;1.60;24.40
5130;DHT22;2583;50.946;6.954;2023-02-08T01:28:40;1.60;24.40
5130;DHT22;2583;50.946;6.954;2023-02-08T01:31:19;1.50;24.60
5130;DHT22;2583;50.946;6.954;2023-02-08T01:33:47;1.50;24.70
5130;DHT22;2583;50.946;6.954;2023-02-08T01:36:14;1.40;24.80
5130;DHT22;2583;50.946;6.954;2023-02-08T01:38:42;1.40;24.90
5130;DHT22;2583;50.946;6.954;2023-02-08T01:41:20;1.40;24.90
5130;DHT22;2583;50.946;6.954;2023-02-08T01:44:07;1.40;25.00
5130;DHT22;2583;50.946;6.954;2023-02-08T01:46:39;1.40;25.00
5130;DHT22;2583;50.946;6.954;2023-02-08T01:49:17;1.40;25.10
5130;DHT22;2583;50.946;6.954;2023-02-08T01:52:06;1.40;25.30
5130;DHT22;2583;50.946;6.954;2023-02-08T01:54:37;1.30;25.50
5130;DHT22;2583;50.946;6.954;2023-02-08T01:57:06;1.40;25.50
5130;DHT22;2583;50.946;6.954;2023-02-08T01:59:46;1.30;25.70
5130;DHT22;2583;50.946;6.954;2023-02-08T02:02:16;1.30;25.80
5130;DHT22;2583;50.946;6.954;2023-02-08T02:04:44;1.30;26.00
5130;DHT22;2583;50.946;6.954;2023-02-08T02:07:12;1.30;26.00
5130;DHT22;2583;50.946;6.954;2023-02-08T02:09:51;1.30;26.20
5130;DHT22;2583;50.946;6.954;2023-02-08T02:12:20;1.30;26.20
5130;DHT22;2583;50.946;6.954;2023-02-08T02:14:47;1.30;26.30
5130;DHT22;2583;50.946;6.954;2023-02-08T02:17:16;1.30;26.40
5130;DHT22;2583;50.946;6.954;2023-02-08T02:34:20;1.20;27.20
5130;DHT22;2583;50.946;6.954;2023-02-08T02:46:26;1.20;27.60
5130;DHT22;2583;50.946;6.954;2023-02-08T02:49:05;1.20;27.60
5130;DHT22;2583;50.946;6.954;2023-02-08T02:51:38;1.20;27.80
5130;DHT22;2583;50.946;6.954;2023-02-08T02:54:12;1.20;28.20
5130;DHT22;2583;50.946;6.954;2023-02-08T02:56:43;1.20;28.00
5130;DHT22;2583;50.946;6.954;2023-02-08T02:59:13;1.20;28.10
5130;DHT22;2583;50.946;6.954;2023-02-08T03:01:42;1.10;28.20
5130;DHT22;2583;50.946;6.954;2023-02-08T03:10:07;1.10;29.20
5130;DHT22;2583;50.946;6.954;2023-02-08T03:12:52;1.00;29.30
5130;DHT22;2583;50.946;6.954;2023-02-08T03:24:30;1.10;29.80
5130;DHT22;2583;50.946;6.954;2023-02-08T03:27:08;1.10;30.00
5130;DHT22;2583;50.946;6.954;2023-02-08T03:32:38;1.00;30.00
5130;DHT22;2583;50.946;6.954;2023-02-08T03:38:00;1.00;30.00
5130;DHT22;2583;50.946;6.954;2023-02-08T03:40:44;0.90;29.90
5130;DHT22;2583;50.946;6.954;2023-02-08T03:43:19;0.90;30.40
5130;DHT22;2583;50.946;6.954;2023-02-08T03:45:59;1.00;30.30
5130;DHT22;2583;50.946;6.954;2023-02-08T03:48:28;0.90;30.60
5130;DHT22;2583;50.946;6.954;2023-02-08T03:50:59;0.90;30.00
5130;DHT22;2583;50.946;6.954;2023-02-08T03:53:27;0.90;30.80
5130;DHT22;2583;50.946;6.954;2023-02-08T03:56:01;0.90;30.90
5130;DHT22;2583;50.946;6.954;2023-02-08T03:58:35;0.90;30.80
5130;DHT22;2583;50.946;6.954;2023-02-08T04:01:09;0.90;31.60
5130;DHT22;2583;50.946;6.954;2023-02-08T04:03:38;0.90;31.20
5130;DHT22;2583;50.946;6.954;2023-02-08T04:06:06;0.90;31.30
5130;DHT22;2583;50.946;6.954;2023-02-08T04:08:32;0.90;31.50
5130;DHT22;2583;50.946;6.954;2023-02-08T04:10:59;0.90;31.60
5130;DHT22;2583;50.946;6.954;2023-02-08T04:13:26;0.90;31.90
5130;DHT22;2583;50.946;6.954;2023-02-08T04:15:53;0.80;31.90
5130;DHT22;2583;50.946;6.954;2023-02-08T04:18:19;0.80;32.00
5130;DHT22;2583;50.946;6.954;2023-02-08T04:20:46;0.80;32.10
5130;DHT22;2583;50.946;6.954;2023-02-08T04:23:13;0.80;32.80
5130;DHT22;2583;50.946;6.954;2023-02-08T04:25:40;0.70;33.00
5130;DHT22;2583;50.946;6.954;2023-02-08T04:28:06;0.70;33.50
5130;DHT22;2583;50.946;6.954;2023-02-08T04:30:33;0.70;33.00
5130;DHT22;2583;50.946;6.954;2023-02-08T04:33:00;0.70;33.40
5130;DHT22;2583;50.946;6.954;2023-02-08T04:35:27;0.70;33.40
5130;DHT22;2583;50.946;6.954;2023-02-08T04:37:54;0.70;33.50
5130;DHT22;2583;50.946;6.954;2023-02-08T04:40:21;0.70;34.10
5130;DHT22;2583;50.946;6.954;2023-02-08T04:42:47;0.70;33.90
5130;DHT22;2583;50.946;6.954;2023-02-08T04:45:14;0.70;33.40
5130;DHT22;2583;50.946;6.954;2023-02-08T04:47:41;0.70;34.10
5130;DHT22;2583;50.946;6.954;2023-02-08T04:50:08;0.70;34.20
5130;DHT22;2583;50.946;6.954;2023-02-08T04:52:35;0.70;33.90
5130;DHT22;2583;50.946;6.954;2023-02-08T04:55:01;0.80;33.30
5130;DHT22;2583;50.946;6.954;2023-02-08T04:57:28;0.80;33.10
5130;DHT22;2583;50.946;6.954;2023-02-08T04:59:55;0.80;32.80
5130;DHT22;2583;50.946;6.954;2023-02-08T05:02:25;0.80;32.80
5130;DHT22;2583;50.946;6.954;2023-02-08T05:04:52;0.90;32.80
5130;DHT22;2583;50.946;6.954;2023-02-08T05:07:19;0.90;31.50
5130;DHT22;2583;50.946;6.954;2023-02-08T05:09:45;0.90;31.10
5130;DHT22;2583;50.946;6.954;2023-02-08T05:12:12;0.90;31.80
5130;DHT22;2583;50.946;6.954;2023-02-08T05:14:39;0.80;32.30
5130;DHT22;2583;50.946;6.954;2023-02-08T05:17:06;0.90;32.20
5130;DHT22;2583;50.946;6.954;2023-02-08T05:19:33;0.80;32.80
5130;DHT22;2583;50.946;6.954;2023-02-08T05:21:59;0.80;32.50
5130;DHT22;2583;50.946;6.954;2023-02-08T05:24:26;0.80;33.20
5130;DHT22;2583;50.946;6.954;2023-02-08T05:26:53;0.80;32.70
5130;DHT22;2583;50.946;6.954;2023-02-08T05:29:20;0.80;32.60
5130;DHT22;2583;50.946;6.954;2023-02-08T05:31:47;0.80;32.60
5130;DHT22;2583;50.946;6.954;2023-02-08T05:34:14;0.80;32.70
5130;DHT22;2583;50.946;6.954;2023-02-08T05:36:40;0.80;32.20
5130;DHT22;2583;50.946;6.954;2023-02-08T05:39:07;0.80;32.40
5130;DHT22;2583;50.946;6.954;2023-02-08T05:41:34;0.90;31.30
5130;DHT22;2583;50.946;6.954;2023-02-08T05:44:01;0.80;31.40
5130;DHT22;2583;50.946;6.954;2023-02-08T05:46:28;0.80;31.90
5130;DHT22;2583;50.946;6.954;2023-02-08T05:48:54;0.80;32.20
5130;DHT22;2583;50.946;6.954;2023-02-08T05:51:21;0.80;33.00
5130;DHT22;2583;50.946;6.954;2023-02-08T05:53:48;0.80;32.80
5130;DHT22;2583;50.946;6.954;2023-02-08T05:56:15;0.70;32.90
5130;DHT22;2583;50.946;6.954;2023-02-08T05:58:42;0.70;32.30
5130;DHT22;2583;50.946;6.954;2023-02-08T06:01:10;0.70;32.90
5130;DHT22;2583;50.946;6.954;2023-02-08T06:03:37;0.70;32.80
5130;DHT22;2583;50.946;6.954;2023-02-08T06:06:05;0.70;32.30
5130;DHT22;2583;50.946;6.954;2023-02-08T06:08:32;0.70;31.00
5130;DHT22;2583;50.946;6.954;2023-02-08T06:10:59;0.70;30.80
5130;DHT22;2583;50.946;6.954;2023-02-08T06:13:26;0.70;30.10
5130;DHT22;2583;50.946;6.954;2023-02-08T06:15:55;0.80;30.30
5130;DHT22;2583;50.946;6.954;2023-02-08T06:18:22;0.70;30.40
5130;DHT22;2583;50.946;6.954;2023-02-08T06:20:52;0.80;30.10
5130;DHT22;2583;50.946;6.954;2023-02-08T06:23:20;0.80;30.30
5130;DHT22;2583;50.946;6.954;2023-02-08T06:25:47;0.70;29.90
5130;DHT22;2583;50.946;6.954;2023-02-08T06:28:14;0.80;30.10
5130;DHT22;2583;50.946;6.954;2023-02-08T06:30:41;0.80;29.90
5130;DHT22;2583;50.946;6.954;2023-02-08T06:33:08;0.80;29.90
5130;DHT22;2583;50.946;6.954;2023-02-08T06:35:35;0.80;30.50
5130;DHT22;2583;50.946;6.954;2023-02-08T06:38:01;0.80;29.60
5130;DHT22;2583;50.946;6.954;2023-02-08T06:40:28;0.80;29.10
5130;DHT22;2583;50.946;6.954;2023-02-08T06:42:55;0.80;29.40
5130;DHT22;2583;50.946;6.954;2023-02-08T06:45:21;0.80;29.30
5130;DHT22;2583;50.946;6.954;2023-02-08T06:47:48;0.80;29.50
5130;DHT22;2583;50.946;6.954;2023-02-08T06:50:15;0.80;29.20
5130;DHT22;2583;50.946;6.954;2023-02-08T06:52:42;0.80;29.00
5130;DHT22;2583;50.946;6.954;2023-02-08T06:55:08;0.90;29.30
5130;DHT22;2583;50.946;6.954;2023-02-08T06:57:35;0.90;28.90
5130;DHT22;2583;50.946;6.954;2023-02-08T07:00:03;0.90;28.80
5130;DHT22;2583;50.946;6.954;2023-02-08T07:02:30;0.80;29.00
5130;DHT22;2583;50.946;6.954;2023-02-08T07:04:58;0.80;29.10
5130;DHT22;2583;50.946;6.954;2023-02-08T07:07:24;0.80;28.60
5130;DHT22;2583;50.946;6.954;2023-02-08T07:09:51;1.00;28.20
5130;DHT22;2583;50.946;6.954;2023-02-08T07:12:18;1.00;28.00
5130;DHT22;2583;50.946;6.954;2023-02-08T07:14:45;1.10;27.60
5130;DHT22;2583;50.946;6.954;2023-02-08T07:17:12;1.10;27.40
5130;DHT22;2583;50.946;6.954;2023-02-08T07:19:39;1.10;27.60
5130;DHT22;2583;50.946;6.954;2023-02-08T07:22:06;1.00;27.60
5130;DHT22;2583;50.946;6.954;2023-02-08T07:24:38;1.10;27.80
5130;DHT22;2583;50.946;6.954;2023-02-08T07:27:07;1.00;28.00
5130;DHT22;2583;50.946;6.954;2023-02-08T07:29:34;1.00;27.20
5130;DHT22;2583;50.946;6.954;2023-02-08T07:32:02;1.00;27.20
5130;DHT22;2583;50.946;6.954;2023-02-08T07:34:33;1.00;27.80
5130;DHT22;2583;50.946;6.954;2023-02-08T07:37:01;0.90;27.70
5130;DHT22;2583;50.946;6.954;2023-02-08T07:39:28;0.90;27.70
5130;DHT22;2583;50.946;6.954;2023-02-08T07:41:57;1.00;27.80
5130;DHT22;2583;50.946;6.954;2023-02-08T07:44:24;0.90;27.80
5130;DHT22;2583;50.946;6.954;2023-02-08T07:46:51;1.00;28.10
5130;DHT22;2583;50.946;6.954;2023-02-08T07:49:18;1.00;28.00
5130;DHT22;2583;50.946;6.954;2023-02-08T07:51:44;1.00;27.60
5130;DHT22;2583;50.946;6.954;2023-02-08T07:54:11;1.00;27.60
5130;DHT22;2583;50.946;6.954;2023-02-08T07:56:38;1.10;27.80
5130;DHT22;2583;50.946;6.954;2023-02-08T07:59:04;1.00;27.70
5130;DHT22;2583;50.946;6.954;2023-02-08T08:01:32;1.10;27.80
5130;DHT22;2583;50.946;6.954;2023-02-08T08:03:58;1.10;27.90
5130;DHT22;2583;50.946;6.954;2023-02-08T08:06:25;1.10;27.80
5130;DHT22;2583;50.946;6.954;2023-02-08T08:08:52;1.10;27.20
5130;DHT22;2583;50.946;6.954;2023-02-08T08:11:20;1.10;27.10
5130;DHT22;2583;50.946;6.954;2023-02-08T08:13:47;1.10;26.30
5130;DHT22;2583;50.946;6.954;2023-02-08T08:16:14;1.20;26.70
5130;DHT22;2583;50.946;6.954;2023-02-08T08:18:41;1.20;27.20
5130;DHT22;2583;50.946;6.954;2023-02-08T08:21:07;1.20;26.80
5130;DHT22;2583;50.946;6.954;2023-02-08T08:23:34;1.20;26.80
5130;DHT22;2583;50.946;6.954;2023-02-08T08:26:11;1.30;26.60
5130;DHT22;2583;50.946;6.954;2023-02-08T08:28:40;1.40;26.90
5130;DHT22;2583;50.946;6.954;2023-02-08T08:31:18;1.50;25.90
5130;DHT22;2583;50.946;6.954;2023-02-08T08:33:46;1.50;25.20
5130;DHT22;2583;50.946;6.954;2023-02-08T08:36:13;1.60;25.30
5130;DHT22;2583;50.946;6.954;2023-02-08T08:38:40;1.70;24.90
5130;DHT22;2583;50.946;6.954;2023-02-08T08:41:09;1.70;25.50
5130;DHT22;2583;50.946;6.954;2023-02-08T08:43:36;1.80;24.40
5130;DHT22;2583;50.946;6.954;2023-02-08T08:46:05;1.80;24.90
5130;DHT22;2583;50.946;6.954;2023-02-08T08:48:33;1.90;24.70
5130;DHT22;2583;50.946;6.954;2023-02-08T08:51:00;1.90;23.50
5130;DHT22;2583;50.946;6.954;2023-02-08T08:53:27;2.00;23.40
5130;DHT22;2583;50.946;6.954;2023-02-08T08:55:54;2.20;23.50
5130;DHT22;2583;50.946;6.954;2023-02-08T08:58:21;2.20;23.70
5130;DHT22;2583;50.946;6.954;2023-02-08T09:00:48;2.30;23.50
5130;DHT22;2583;50.946;6.954;2023-02-08T09:03:15;2.30;22.90
5130;DHT22;2583;50.946;6.954;2023-02-08T09:05:42;2.40;22.90
5130;DHT22;2583;50.946;6.954;2023-02-08T09:08:09;2.50;23.10
5130;DHT22;2583;50.946;6.954;2023-02-08T09:10:35;2.60;22.50
5130;DHT22;2583;50.946;6.954;2023-02-08T09:13:02;2.70;22.00
5130;DHT22;2583;50.946;6.954;2023-02-08T09:15:29;2.90;22.00
5130;DHT22;2583;50.946;6.954;2023-02-08T09:17:56;3.00;21.20
5130;DHT22;2583;50.946;6.954;2023-02-08T09:20:22;3.00;20.60
5130;DHT22;2583;50.946;6.954;2023-02-08T09:22:49;3.10;20.70
5130;DHT22;2583;50.946;6.954;2023-02-08T09:25:17;3.30;20.80
5130;DHT22;2583;50.946;6.954;2023-02-08T09:27:44;3.30;20.20
5130;DHT22;2583;50.946;6.954;2023-02-08T09:30:10;3.40;20.40
5130;DHT22;2583;50.946;6.954;2023-02-08T09:32:37;3.50;19.90
5130;DHT22;2583;50.946;6.954;2023-02-08T09:35:06;3.60;19.20
5130;DHT22;2583;50.946;6.954;2023-02-08T09:37:34;3.70;18.60
5130;DHT22;2583;50.946;6.954;2023-02-08T09:40:00;3.80;18.10
5130;DHT22;2583;50.946;6.954;2023-02-08T09:42:40;3.90;18.20
5130;DHT22;2583;50.946;6.954;2023-02-08T09:45:38;4.00;17.40
5130;DHT22;2583;50.946;6.954;2023-02-08T09:48:27;3.90;17.40
5130;DHT22;2583;50.946;6.954;2023-02-08T09:53:57;4.10;17.20
5130;DHT22;2583;50.946;6.954;2023-02-08T09:56:34;4.20;17.10
5130;DHT22;2583;50.946;6.954;2023-02-08T09:59:03;4.30;16.70
5130;DHT22;2583;50.946;6.954;2023-02-08T10:01:34;4.40;16.10
5130;DHT22;2583;50.946;6.954;2023-02-08T10:04:18;4.60;16.10
5130;DHT22;2583;50.946;6.954;2023-02-08T10:06:47;4.60;15.50
5130;DHT22;2583;50.946;6.954;2023-02-08T10:09:19;4.70;15.30
5130;DHT22;2583;50.946;6.954;2023-02-08T10:20:23;5.20;14.80
5130;DHT22;2583;50.946;6.954;2023-02-08T10:34:31;5.70;13.70
5130;DHT22;2583;50.946;6.954;2023-02-08T10:37:13;5.80;13.50
5130;DHT22;2583;50.946;6.954;2023-02-08T10:39:44;6.00;13.20
5130;DHT22;2583;50.946;6.954;2023-02-08T10:42:20;6.00;12.60
5130;DHT22;2583;50.946;6.954;2023-02-08T10:45:07;6.00;12.80
5130;DHT22;2583;50.946;6.954;2023-02-08T10:48:04;6.10;12.40
5130;DHT22;2583;50.946;6.954;2023-02-08T10:50:39;6.20;12.60
5130;DHT22;2583;50.946;6.954;2023-02-08T10:53:13;6.30;12.20
5130;DHT22;2583;50.946;6.954;2023-02-08T10:55:47;6.10;11.80
5130;DHT22;2583;50.946;6.954;2023-02-08T10:58:23;6.20;11.30
5130;DHT22;2583;50.946;6.954;2023-02-08T11:00:53;6.20;10.70
5130;DHT22;2583;50.946;6.954;2023-02-08T11:03:27;6.30;10.80
5130;DHT22;2583;50.946;6.954;2023-02-08T11:05:57;6.30;10.00
5130;DHT22;2583;50.946;6.954;2023-02-08T11:08:26;6.40;10.00
5130;DHT22;2583;50.946;6.954;2023-02-08T11:11:03;6.60;9.90
5130;DHT22;2583;50.946;6.954;2023-02-08T11:13:43;6.60;9.70
5130;DHT22;2583;50.946;6.954;2023-02-08T11:16:24;6.60;9.50
5130;DHT22;2583;50.946;6.954;2023-02-08T11:18:57;6.70;9.10
5130;DHT22;2583;50.946;6.954;2023-02-08T11:21:32;6.70;8.70
5130;DHT22;2583;50.946;6.954;2023-02-08T11:24:17;6.70;7.80
5130;DHT22;2583;50.946;6.954;2023-02-08T11:26:50;6.90;8.00
5130;DHT22;2583;50.946;6.954;2023-02-08T11:29:19;7.00;7.60
5130;DHT22;2583;50.946;6.954;2023-02-08T11:31:57;7.10;7.60
5130;DHT22;2583;50.946;6.954;2023-02-08T11:37:17;7.20;6.80
5130;DHT22;2583;50.946;6.954;2023-02-08T11:39:52;7.30;7.30
5130;DHT22;2583;50.946;6.954;2023-02-08T11:42:30;7.20;6.60
5130;DHT22;2583;50.946;6.954;2023-02-08T11:45:00;7.20;6.60
5130;DHT22;2583;50.946;6.954;2023-02-08T11:47:33;7.40;6.10
5130;DHT22;2583;50.946;6.954;2023-02-08T11:50:06;7.50;5.50
5130;DHT22;2583;50.946;6.954;2023-02-08T11:52:35;7.50;5.70
5130;DHT22;2583;50.946;6.954;2023-02-08T12:00:27;7.50;5.20
5130;DHT22;2583;50.946;6.954;2023-02-08T12:02:59;7.50;4.70
5130;DHT22;2583;50.946;6.954;2023-02-08T12:08:43;7.60;3.30
5130;DHT22;2583;50.946;6.954;2023-02-08T12:14:11;7.70;3.50
5130;DHT22;2583;50.946;6.954;2023-02-08T12:22:19;7.80;2.80
5130;DHT22;2583;50.946;6.954;2023-02-08T12:31:14;8.20;2.80
5130;DHT22;2583;50.946;6.954;2023-02-08T12:33:57;8.40;2.80
5130;DHT22;2583;50.946;6.954;2023-02-08T12:43:38;8.70;3.00
5130;DHT22;2583;50.946;6.954;2023-02-08T12:57:21;9.20;2.70
5130;DHT22;2583;50.946;6.954;2023-02-08T13:00:01;9.30;2.00
5130;DHT22;2583;50.946;6.954;2023-02-08T13:02:47;9.20;1.90
5130;DHT22;2583;50.946;6.954;2023-02-08T13:05:21;9.30;2.10
5130;DHT22;2583;50.946;6.954;2023-02-08T13:07:58;9.40;1.80
5130;DHT22;2583;50.946;6.954;2023-02-08T13:13:03;9.50;1.60
5130;DHT22;2583;50.946;6.954;2023-02-08T13:15:45;9.70;1.60
5130;DHT22;2583;50.946;6.954;2023-02-08T13:18:48;9.80;1.60
5130;DHT22;2583;50.946;6.954;2023-02-08T13:21:23;9.90;1.00
5130;DHT22;2583;50.946;6.954;2023-02-08T13:23:51;10.00;1.00
5130;DHT22;2583;50.946;6.954;2023-02-08T13:26:24;10.00;1.00
5130;DHT22;2583;50.946;6.954;2023-02-08T13:28:58;10.10;1.00
5130;DHT22;2583;50.946;6.954;2023-02-08T13:31:32;10.30;1.00
5130;DHT22;2583;50.946;6.954;2023-02-08T13:34:13;10.30;1.00
5130;DHT22;2583;50.946;6.954;2023-02-08T13:36:50;10.50;1.00
5130;DHT22;2583;50.946;6.954;2023-02-08T13:42:01;10.60;1.00
5130;DHT22;2583;50.946;6.954;2023-02-08T13:44:31;10.60;1.00
5130;DHT22;2583;50.946;6.954;2023-02-08T13:47:00;10.80;1.00
5130;DHT22;2583;50.946;6.954;2023-02-08T13:58:24;11.10;1.00
5130;DHT22;2583;50.946;6.954;2023-02-08T14:03:28;11.60;1.00
5130;DHT22;2583;50.946;6.954;2023-02-08T14:06:00;11.80;1.00
5130;DHT22;2583;50.946;6.954;2023-02-08T14:11:11;12.20;1.00
5130;DHT22;2583;50.946;6.954;2023-02-08T14:16:34;12.50;1.00
5130;DHT22;2583;50.946;6.954;2023-02-08T14:19:20;12.60;1.00
5130;DHT22;2583;50.946;6.954;2023-02-08T14:22:02;12.70;1.00
5130;DHT22;2583;50.946;6.954;2023-02-08T14:24:32;12.50;1.00
5130;DHT22;2583;50.946;6.954;2023-02-08T14:27:09;12.50;1.00
5130;DHT22;2583;50.946;6.954;2023-02-08T14:29:36;12.30;1.00
5130;DHT22;2583;50.946;6.954;2023-02-08T14:32:03;12.20;1.00
5130;DHT22;2583;50.946;6.954;2023-02-08T14:34:37;12.20;1.00
5130;DHT22;2583;50.946;6.954;2023-02-08T14:39:43;11.70;1.00
5130;DHT22;2583;50.946;6.954;2023-02-08T14:42:10;11.00;1.00
5130;DHT22;2583;50.946;6.954;2023-02-08T14:50:17;10.00;1.00
5130;DHT22;2583;50.946;6.954;2023-02-08T14:55:29;9.60;1.00
5130;DHT22;2583;50.946;6.954;2023-02-08T14:57:58;9.50;1.00
5130;DHT22;2583;50.946;6.954;2023-02-08T15:00:31;9.30;1.00
5130;DHT22;2583;50.946;6.954;2023-02-08T15:02:59;9.10;1.30
5130;DHT22;2583;50.946;6.954;2023-02-08T15:05:29;9.00;1.30
5130;DHT22;2583;50.946;6.954;2023-02-08T15:07:58;8.90;1.70
5130;DHT22;2583;50.946;6.954;2023-02-08T15:10:30;8.80;1.60
5130;DHT22;2583;50.946;6.954;2023-02-08T15:13:01;8.80;1.50
5130;DHT22;2583;50.946;6.954;2023-02-08T15:18:03;8.70;1.50
5130;DHT22;2583;50.946;6.954;2023-02-08T15:20:33;8.70;1.30
5130;DHT22;2583;50.946;6.954;2023-02-08T15:23:05;8.60;1.50
5130;DHT22;2583;50.946;6.954;2023-02-08T15:25:35;8.50;1.10
5130;DHT22;2583;50.946;6.954;2023-02-08T15:28:20;8.50;1.30
5130;DHT22;2583;50.946;6.954;2023-02-08T15:30:59;8.40;1.50
5130;DHT22;2583;50.946;6.954;2023-02-08T15:33:27;8.30;1.40
5130;DHT22;2583;50.946;6.954;2023-02-08T15:36:04;8.30;1.20
5130;DHT22;2583;50.946;6.954;2023-02-08T15:38:34;8.30;1.50
5130;DHT22;2583;50.946;6.954;2023-02-08T15:41:10;8.20;1.60
5130;DHT22;2583;50.946;6.954;2023-02-08T15:43:38;8.00;1.70
5130;DHT22;2583;50.946;6.954;2023-02-08T15:46:22;7.90;1.90
5130;DHT22;2583;50.946;6.954;2023-02-08T15:48:50;7.90;1.80
5130;DHT22;2583;50.946;6.954;2023-02-08T15:51:19;7.80;1.50
5130;DHT22;2583;50.946;6.954;2023-02-08T15:53:51;7.70;1.80
5130;DHT22;2583;50.946;6.954;2023-02-08T15:56:32;7.70;1.70
5130;DHT22;2583;50.946;6.954;2023-02-08T15:59:06;7.70;1.80
5130;DHT22;2583;50.946;6.954;2023-02-08T16:01:38;7.60;1.80
5130;DHT22;2583;50.946;6.954;2023-02-08T16:04:05;7.60;2.20
5130;DHT22;2583;50.946;6.954;2023-02-08T16:06:39;7.50;2.20
5130;DHT22;2583;50.946;6.954;2023-02-08T16:09:19;7.50;2.00
5130;DHT22;2583;50.946;6.954;2023-02-08T16:11:48;7.50;1.80
5130;DHT22;2583;50.946;6.954;2023-02-08T16:14:19;7.40;1.70
5130;DHT22;2583;50.946;6.954;2023-02-08T16:16:56;7.40;1.50
5130;DHT22;2583;50.946;6.954;2023-02-08T16:19:28;7.40;1.70
5130;DHT22;2583;50.946;6.954;2023-02-08T16:24:42;7.20;2.10
5130;DHT22;2583;50.946;6.954;2023-02-08T16:27:27;7.20;2.40
5130;DHT22;2583;50.946;6.954;2023-02-08T16:29:55;7.10;2.40
5130;DHT22;2583;50.946;6.954;2023-02-08T16:32:28;7.00;2.60
5130;DHT22;2583;50.946;6.954;2023-02-08T16:34:56;7.00;2.60
5130;DHT22;2583;50.946;6.954;2023-02-08T16:37:31;6.90;2.90
5130;DHT22;2583;50.946;6.954;2023-02-08T16:40:08;6.90;3.10
5130;DHT22;2583;50.946;6.954;2023-02-08T16:42:49;6.80;2.90
5130;DHT22;2583;50.946;6.954;2023-02-08T16:45:19;6.80;3.20
5130;DHT22;2583;50.946;6.954;2023-02-08T16:47:54;6.70;3.40
5130;DHT22;2583;50.946;6.954;2023-02-08T16:50:25;6.70;3.50
5130;DHT22;2583;50.946;6.954;2023-02-08T16:53:00;6.60;3.60
5130;DHT22;2583;50.946;6.954;2023-02-08T16:55:30;6.60;4.00
5130;DHT22;2583;50.946;6.954;2023-02-08T16:57:57;6.60;3.80
5130;DHT22;2583;50.946;6.954;2023-02-08T17:00:28;6.60;4.10
5130;DHT22;2583;50.946;6.954;2023-02-08T17:02:56;6.50;4.10
5130;DHT22;2583;50.946;6.954;2023-02-08T17:05:25;6.50;4.30
5130;DHT22;2583;50.946;6.954;2023-02-08T17:07:52;6.50;4.80
5130;DHT22;2583;50.946;6.954;2023-02-08T17:10:31;6.30;5.00
5130;DHT22;2583;50.946;6.954;2023-02-08T17:12:59;6.30;5.20
5130;DHT22;2583;50.946;6.954;2023-02-08T17:15:47;6.20;5.40
5130;DHT22;2583;50.946;6.954;2023-02-08T17:18:14;6.20;5.80
5130;DHT22;2583;50.946;6.954;2023-02-08T17:20:41;6.10;6.00
5130;DHT22;2583;50.946;6.954;2023-02-08T17:23:08;6.10;5.90
5130;DHT22;2583;50.946;6.954;2023-02-08T17:25:36;6.00;6.40
5130;DHT22;2583;50.946;6.954;2023-02-08T17:28:05;6.10;6.30
5130;DHT22;2583;50.946;6.954;2023-02-08T17:30:35;6.10;6.30
5130;DHT22;2583;50.946;6.954;2023-02-08T17:33:04;6.00;6.20
5130;DHT22;2583;50.946;6.954;2023-02-08T17:35:33;6.00;6.20
5130;DHT22;2583;50.946;6.954;2023-02-08T17:38:00;5.90;6.20
5130;DHT22;2583;50.946;6.954;2023-02-08T17:40:30;5.90;6.50
5130;DHT22;2583;50.946;6.954;2023-02-08T17:42:59;5.90;6.80
5130;DHT22;2583;50.946;6.954;2023-02-08T17:45:26;5.80;7.00
5130;DHT22;2583;50.946;6.954;2023-02-08T17:47:54;5.80;7.40
5130;DHT22;2583;50.946;6.954;2023-02-08T17:50:22;5.80;6.90
5130;DHT22;2583;50.946;6.954;2023-02-08T17:52:49;5.80;7.20
5130;DHT22;2583;50.946;6.954;2023-02-08T17:55:17;5.70;7.10
5130;DHT22;2583;50.946;6.954;2023-02-08T17:57:45;5.60;7.10
5130;DHT22;2583;50.946;6.954;2023-02-08T18:00:17;5.60;7.20
5130;DHT22;2583;50.946;6.954;2023-02-08T18:02:50;5.60;7.40
5130;DHT22;2583;50.946;6.954;2023-02-08T18:05:23;5.60;7.70
5130;DHT22;2583;50.946;6.954;2023-02-08T18:07:51;5.40;7.70
5130;DHT22;2583;50.946;6.954;2023-02-08T18:10:19;5.50;8.00
5130;DHT22;2583;50.946;6.954;2023-02-08T18:12:47;5.50;7.80
5130;DHT22;2583;50.946;6.954;2023-02-08T18:15:17;5.50;7.90
5130;DHT22;2583;50.946;6.954;2023-02-08T18:17:45;5.40;8.00
5130;DHT22;2583;50.946;6.954;2023-02-08T18:20:14;5.40;8.00
5130;DHT22;2583;50.946;6.954;2023-02-08T18:22:42;5.40;8.20
5130;DHT22;2583;50.946;6.954;2023-02-08T18:25:10;5.30;8.10
5130;DHT22;2583;50.946;6.954;2023-02-08T18:27:38;5.30;8.10
5130;DHT22;2583;50.946;6.954;2023-02-08T18:30:05;5.30;8.40
5130;DHT22;2583;50.946;6.954;2023-02-08T18:32:32;5.20;8.70
5130;DHT22;2583;50.946;6.954;2023-02-08T18:35:00;5.10;8.90
5130;DHT22;2583;50.946;6.954;2023-02-08T18:37:30;5.10;9.20
5130;DHT22;2583;50.946;6.954;2023-02-08T18:39:57;5.10;9.30
5130;DHT22;2583;50.946;6.954;2023-02-08T18:42:24;5.00;9.20
5130;DHT22;2583;50.946;6.954;2023-02-08T18:44:51;4.90;9.20
5130;DHT22;2583;50.946;6.954;2023-02-08T18:47:17;4.90;9.30
5130;DHT22;2583;50.946;6.954;2023-02-08T18:49:44;4.90;9.50
5130;DHT22;2583;50.946;6.954;2023-02-08T18:52:13;4.80;9.50
5130;DHT22;2583;50.946;6.954;2023-02-08T18:54:42;4.90;9.70
5130;DHT22;2583;50.946;6.954;2023-02-08T18:57:09;4.80;9.60
5130;DHT22;2583;50.946;6.954;2023-02-08T18:59:37;4.80;9.60
5130;DHT22;2583;50.946;6.954;2023-02-08T19:02:05;4.80;9.70
5130;DHT22;2583;50.946;6.954;2023-02-08T19:04:39;4.70;9.60
5130;DHT22;2583;50.946;6.954;2023-02-08T19:07:06;4.70;9.80
5130;DHT22;2583;50.946;6.954;2023-02-08T19:09:34;4.60;9.70
5130;DHT22;2583;50.946;6.954;2023-02-08T19:12:02;4.50;9.80
5130;DHT22;2583;50.946;6.954;2023-02-08T19:14:29;4.50;9.90